• Join FlightAware (Why Join?)
  • Login
  • US Flag 
09:52PM EDT


 

Airport Tracker/Info


-or-


 

Live Flight TrackerFlight Track Log ✈ WBR2634 ✈ 16-Apr-2013 ✈ KBRL - KORD

Flight Track Log - Related Links

Times and Time Zones

All times are in EDT time to prevent confusion due to time zone crossing. See the WBR2634 flight status page for this flight to view local times or setup timezone preferences in your user account.

Time Position Orientation Groundspeed Altitude Reporting Facility
EDT Latitude Longitude Course Direction KTS MPH feet Rate Location/Type
05:32PM 40.8691 -90.7402 72° East  Level FlightAware Approximate
05:33PM 40.8849 -90.6765 73° East  Level FlightAware Approximate
05:34PM 40.8998 -90.6124 73° East  Level FlightAware Approximate
05:35PM 40.9147 -90.5482 73° East  Level FlightAware Approximate
05:36PM 40.9296 -90.4840 73° East  Level FlightAware Approximate
05:36PM 40.8253 -91.0975 70° East 125 144 3,100  Level Chicago Center
05:37PM 40.9444 -90.4198 73° East  Level FlightAware Approximate
05:37PM 40.8339 -91.0628 72° East 104 120 3,900  Level Chicago Center
05:38PM 40.9592 -90.3555 73° East  Level FlightAware Approximate
05:38PM 40.8419 -91.0208 76° East 109 125 4,700  Level Chicago Center
05:39PM 40.9739 -90.2912 73° East  Level FlightAware Approximate
05:39PM 40.8525 -90.9758 73° East 120 138 5,500  Level Chicago Center
05:40PM 40.9894 -90.2273 70° East  Level FlightAware Approximate
05:40PM 40.8633 -90.9311 72° East 126 145 6,100  Level Chicago Center
05:41PM 41.0065 -90.1640 70° East  Level FlightAware Approximate
05:41PM 40.8728 -90.8797 76° East 139 160 6,700  Level Chicago Center
05:42PM 40.8903 -90.8144 70° East 154 177 7,300 480 Climbing Chicago Center
05:43PM 40.9031 -90.7564 74° East 161 185 7,800 480 Climbing Chicago Center
05:44PM 40.9153 -90.6958 75° East 168 193 8,300 540 Climbing Chicago Center
05:45PM 40.9303 -90.6358 72° East 170 196 9,000 300 Climbing Chicago Center
05:46PM 40.9447 -90.5708 74° East 180 207 9,000  Level Chicago Center
05:47PM 40.9603 -90.5036 73° East 189 217 9,000 -60 Level Chicago Center
05:48PM 40.9767 -90.4375 72° East 189 217 8,900  Descending Chicago Center
05:49PM 40.9964 -90.3581 72° East 189 217 9,000  Climbing Chicago Center
05:51PM 41.0103 -90.2911 75° East 189 217 9,000  Level Chicago Center
05:52PM 41.0236 -90.2233 75° East 189 217 9,000  Level Chicago Center
05:53PM 41.0428 -90.1583 69° East 189 217 9,000  Level Chicago Center
05:54PM 41.0581 -90.0928 73° East 187 215 9,000  Level Chicago Center
05:55PM 41.0733 -90.0247 73° East 190 219 9,000  Level Chicago Center
05:56PM 41.0908 -89.9450 74° East 189 217 9,000  Level Chicago Center
05:57PM 41.1039 -89.8775 76° East 188 216 9,000  Level Chicago Center
05:58PM 41.1181 -89.8106 74° East 189 217 9,000  Level Chicago Center
05:59PM 41.1319 -89.7461 74° East 183 211 9,100  Climbing Chicago Center
06:00PM 41.1483 -89.6792 72° East 187 215 9,100  Level Chicago Center
06:01PM 41.1633 -89.6103 74° East 193 222 9,100 -60 Level Chicago Center
06:02PM 41.1831 -89.5450 68° East 192 221 9,000 -60 Descending Chicago Center
06:03PM 41.2186 -89.4733 57° Northeast 193 222 9,000  Level Chicago Center
06:04PM 41.2481 -89.4147 56° Northeast 191 220 9,100  Climbing Chicago Center
06:05PM 41.2739 -89.3528 61° Northeast 192 221 9,100 -60 Level Chicago Center
06:06PM 41.3028 -89.2917 58° Northeast 193 222 9,000 -60 Descending Chicago Center
06:07PM 41.3306 -89.2306 59° Northeast 195 224 9,000  Level Chicago Center
06:08PM 41.3600 -89.1672 58° Northeast 192 221 9,000 -60 Level Chicago Center
06:09PM 41.3872 -89.1078 59° Northeast 190 219 8,900 -300 Descending Chicago Center
06:10PM 41.4200 -89.0375 58° Northeast 189 217 8,400 -480 Descending Chicago Center
06:11PM 41.4456 -88.9794 60° Northeast 184 212 8,000 -240 Descending Chicago Center
06:12PM 41.4708 -88.9247 58° Northeast 177 204 8,000  Level Chicago Center
06:13PM 41.4967 -88.8697 58° Northeast 175 201 8,000  Level Chicago Center
06:14PM 41.5228 -88.8139 58° Northeast 178 205 8,000  Level Chicago Center
06:15PM 41.5567 -88.7481 55° Northeast 180 207 8,000  Level Chicago Center
06:16PM 41.5742 -88.6861 69° East 180 207 8,000  Level Chicago Center
06:17PM 41.5947 -88.6258 65° Northeast 180 207 8,000 -60 Level Chicago Center
06:18PM 41.6142 -88.5625 68° East 182 209 7,900 -60 Descending Chicago Center
06:20PM 41.6344 -88.5000 67° East 183 211 7,900  Level Chicago Center
06:21PM 41.6581 -88.4417 62° Northeast 183 211 8,000  Climbing Chicago Center
06:22PM 41.6989 -88.3828 47° Northeast 180 207 8,000  Level Chicago Center
06:23PM 41.7119 -88.3211 74° East 181 208 8,000 -120 Level Chicago Center
06:24PM 41.7242 -88.2539 76° East 187 215 7,800 -600 Descending Chicago Center
06:25PM 41.7461 -88.1928 64° Northeast 184 212 6,800 -1,020 Descending Chicago Center
06:26PM 41.7678 -88.1267 66° East 188 216 5,800 -1,080 Descending Chicago Center
06:27PM 41.7994 -88.0797 48° Northeast 180 207 4,600 -960 Descending Chicago Center
06:28PM 41.8372 -88.0347 42° Northeast 162 186 3,800 -840 Descending Chicago Center
06:29PM 41.8703 -87.9972 40° Northeast 157 181 2,900 -840 Descending Chicago Center
06:30PM 41.9000 -87.9667 37° Northeast 150 173 2,300 -900 Descending Chicago TRACON
06:31PM 41.9333 -87.9333 37° Northeast 152 175 1,400 -900 Descending Chicago TRACON
06:33PM 41.9667 -87.9000 56° Northeast  Level FlightAware Approximate